sensor_id;sensor_type;location;lat;lon;timestamp;pressure;altitude;pressure_sealevel;temperature;humidity
43312;BME280;30041;48.300;16.352;2023-05-22T00:01:03;99705.22;;;22.35;52.50
43312;BME280;30041;48.300;16.352;2023-05-22T00:03:29;99704.16;;;22.36;52.05
43312;BME280;30041;48.300;16.352;2023-05-22T00:05:54;99701.72;;;22.35;52.08
43312;BME280;30041;48.300;16.352;2023-05-22T00:08:20;99704.41;;;22.35;52.14
43312;BME280;30041;48.300;16.352;2023-05-22T00:10:46;99695.47;;;22.34;52.29
43312;BME280;30041;48.300;16.352;2023-05-22T00:13:11;99698.16;;;22.34;52.28
43312;BME280;30041;48.300;16.352;2023-05-22T00:15:37;99705.47;;;22.34;52.10
43312;BME280;30041;48.300;16.352;2023-05-22T00:18:02;99706.03;;;22.36;51.92
43312;BME280;30041;48.300;16.352;2023-05-22T00:20:27;99703.34;;;22.36;52.08
43312;BME280;30041;48.300;16.352;2023-05-22T00:22:53;99704.41;;;22.35;52.14
43312;BME280;30041;48.300;16.352;2023-05-22T00:25:18;99706.03;;;22.36;52.09
43312;BME280;30041;48.300;16.352;2023-05-22T00:27:45;99702.25;;;22.37;52.10
43312;BME280;30041;48.300;16.352;2023-05-22T00:30:12;99704.97;;;22.37;52.03
43312;BME280;30041;48.300;16.352;2023-05-22T00:32:38;99699.00;;;22.35;51.96
43312;BME280;30041;48.300;16.352;2023-05-22T00:35:04;99699.00;;;22.35;51.84
43312;BME280;30041;48.300;16.352;2023-05-22T00:37:29;99695.25;;;22.36;52.00
43312;BME280;30041;48.300;16.352;2023-05-22T00:39:54;99699.81;;;22.35;52.06
43312;BME280;30041;48.300;16.352;2023-05-22T00:42:20;99701.72;;;22.35;51.86
43312;BME280;30041;48.300;16.352;2023-05-22T00:44:47;99696.31;;;22.35;52.22
43312;BME280;30041;48.300;16.352;2023-05-22T00:47:12;99701.72;;;22.35;52.08
43312;BME280;30041;48.300;16.352;2023-05-22T00:49:38;99704.41;;;22.35;51.84
43312;BME280;30041;48.300;16.352;2023-05-22T00:52:04;99699.81;;;22.35;52.09
43312;BME280;30041;48.300;16.352;2023-05-22T00:54:30;99696.88;;;22.37;51.89
43312;BME280;30041;48.300;16.352;2023-05-22T00:56:56;99691.72;;;22.35;51.84
43312;BME280;30041;48.300;16.352;2023-05-22T00:59:22;99690.91;;;22.35;52.01
43312;BME280;30041;48.300;16.352;2023-05-22T01:01:48;99690.06;;;22.34;52.06
43312;BME280;30041;48.300;16.352;2023-05-22T01:04:14;99685.50;;;22.35;51.91
43312;BME280;30041;48.300;16.352;2023-05-22T01:06:40;99687.38;;;22.34;51.84
43312;BME280;30041;48.300;16.352;2023-05-22T01:09:06;99680.91;;;22.35;51.97
43312;BME280;30041;48.300;16.352;2023-05-22T01:14:33;99687.63;;;22.33;51.94
43312;BME280;30041;48.300;16.352;2023-05-22T01:17:41;99691.16;;;22.33;52.05
43312;BME280;30041;48.300;16.352;2023-05-22T01:20:27;99687.63;;;22.33;52.08
43312;BME280;30041;48.300;16.352;2023-05-22T01:23:14;99684.94;;;22.33;51.73
43312;BME280;30041;48.300;16.352;2023-05-22T01:31:26;99707.13;;;22.35;52.06
43312;BME280;30041;48.300;16.352;2023-05-22T01:33:55;99703.56;;;22.34;51.79
43312;BME280;30041;48.300;16.352;2023-05-22T01:36:24;99705.47;;;22.34;51.68
43312;BME280;30041;48.300;16.352;2023-05-22T01:38:51;99706.28;;;22.34;51.67
43312;BME280;30041;48.300;16.352;2023-05-22T01:41:17;99712.50;;;22.35;51.84
43312;BME280;30041;48.300;16.352;2023-05-22T01:43:44;99707.66;;;22.37;51.96
43312;BME280;30041;48.300;16.352;2023-05-22T01:46:10;99710.03;;;22.33;51.86
43312;BME280;30041;48.300;16.352;2023-05-22T01:48:36;99708.75;;;22.36;52.00
43312;BME280;30041;48.300;16.352;2023-05-22T01:51:28;99720.63;;;22.35;52.02
43312;BME280;30041;48.300;16.352;2023-05-22T01:56:58;99705.22;;;22.35;51.70
43312;BME280;30041;48.300;16.352;2023-05-22T01:59:52;99704.88;;;22.32;51.69
43312;BME280;30041;48.300;16.352;2023-05-22T02:02:20;99702.53;;;22.35;51.46
43312;BME280;30041;48.300;16.352;2023-05-22T02:04:51;99706.28;;;22.34;51.88
43312;BME280;30041;48.300;16.352;2023-05-22T02:07:21;99694.66;;;22.34;51.73
43312;BME280;30041;48.300;16.352;2023-05-22T02:09:47;99696.31;;;22.35;51.58
43312;BME280;30041;48.300;16.352;2023-05-22T02:12:15;99699.00;;;22.35;51.63
43312;BME280;30041;48.300;16.352;2023-05-22T02:14:42;99696.31;;;22.35;51.43
43312;BME280;30041;48.300;16.352;2023-05-22T02:17:07;99699.25;;;22.33;51.58
43312;BME280;30041;48.300;16.352;2023-05-22T02:19:36;99700.06;;;22.34;51.77
43312;BME280;30041;48.300;16.352;2023-05-22T02:22:02;99691.97;;;22.34;51.68
43312;BME280;30041;48.300;16.352;2023-05-22T02:24:31;99697.59;;;22.32;51.63
43312;BME280;30041;48.300;16.352;2023-05-22T02:26:56;99688.69;;;22.32;51.48
43312;BME280;30041;48.300;16.352;2023-05-22T02:29:22;99695.16;;;22.31;51.46
43312;BME280;30041;48.300;16.352;2023-05-22T02:31:48;99697.59;;;22.32;51.39
43312;BME280;30041;48.300;16.352;2023-05-22T02:34:13;99693.84;;;22.33;51.46
43312;BME280;30041;48.300;16.352;2023-05-22T02:36:39;99696.78;;;22.32;51.32
43312;BME280;30041;48.300;16.352;2023-05-22T02:39:05;99693.03;;;22.33;51.51
43312;BME280;30041;48.300;16.352;2023-05-22T02:41:31;99691.38;;;22.32;51.42
43312;BME280;30041;48.300;16.352;2023-05-22T02:43:56;99685.97;;;22.32;51.12
43312;BME280;30041;48.300;16.352;2023-05-22T02:46:21;99687.63;;;22.33;51.26
43312;BME280;30041;48.300;16.352;2023-05-22T02:48:47;99685.97;;;22.32;51.34
43312;BME280;30041;48.300;16.352;2023-05-22T02:51:12;99683.50;;;22.30;51.20
43312;BME280;30041;48.300;16.352;2023-05-22T02:53:39;99681.66;;;22.31;51.32
43312;BME280;30041;48.300;16.352;2023-05-22T02:56:07;99680.56;;;22.32;51.34
43312;BME280;30041;48.300;16.352;2023-05-22T02:58:32;99678.09;;;22.30;51.04
43312;BME280;30041;48.300;16.352;2023-05-22T03:00:58;99672.72;;;22.30;51.19
43312;BME280;30041;48.300;16.352;2023-05-22T03:03:23;99684.59;;;22.29;51.25
43312;BME280;30041;48.300;16.352;2023-05-22T03:05:49;99687.63;;;22.33;51.15
43312;BME280;30041;48.300;16.352;2023-05-22T03:08:14;99682.47;;;22.31;51.03
43312;BME280;30041;48.300;16.352;2023-05-22T03:10:40;99684.09;;;22.32;51.07
43312;BME280;30041;48.300;16.352;2023-05-22T03:13:06;99677.66;;;22.33;51.04
43312;BME280;30041;48.300;16.352;2023-05-22T03:15:32;99675.19;;;22.32;50.96
43312;BME280;30041;48.300;16.352;2023-05-22T03:17:57;99671.91;;;22.30;50.92
43312;BME280;30041;48.300;16.352;2023-05-22T03:20:22;99675.41;;;22.30;50.89
43312;BME280;30041;48.300;16.352;2023-05-22T03:22:48;99673.56;;;22.31;50.86
43312;BME280;30041;48.300;16.352;2023-05-22T03:25:13;99682.69;;;22.30;50.94
43312;BME280;30041;48.300;16.352;2023-05-22T03:27:39;99687.63;;;22.33;51.08
43312;BME280;30041;48.300;16.352;2023-05-22T03:30:05;99681.38;;;22.32;50.79
43312;BME280;30041;48.300;16.352;2023-05-22T03:32:31;99681.38;;;22.32;50.90
43312;BME280;30041;48.300;16.352;2023-05-22T03:34:56;99681.06;;;22.29;51.04
43312;BME280;30041;48.300;16.352;2023-05-22T03:37:21;99682.97;;;22.28;51.02
43312;BME280;30041;48.300;16.352;2023-05-22T03:39:47;99681.06;;;22.29;50.80
43312;BME280;30041;48.300;16.352;2023-05-22T03:42:12;99680.00;;;22.30;50.86
43312;BME280;30041;48.300;16.352;2023-05-22T03:44:38;99682.97;;;22.28;50.81
43312;BME280;30041;48.300;16.352;2023-05-22T03:47:04;99692.91;;;22.28;50.79
43312;BME280;30041;48.300;16.352;2023-05-22T03:49:29;99686.47;;;22.29;50.65
43312;BME280;30041;48.300;16.352;2023-05-22T03:51:55;99691.06;;;22.28;50.94
43312;BME280;30041;48.300;16.352;2023-05-22T03:54:20;99691.88;;;22.29;51.09
43312;BME280;30041;48.300;16.352;2023-05-22T03:56:46;99692.69;;;22.29;51.02
43312;BME280;30041;48.300;16.352;2023-05-22T03:59:11;99690.22;;;22.28;51.42
43312;BME280;30041;48.300;16.352;2023-05-22T04:01:37;99689.75;;;22.31;51.16
43312;BME280;30041;48.300;16.352;2023-05-22T04:04:02;99689.75;;;22.31;51.24
43312;BME280;30041;48.300;16.352;2023-05-22T04:06:28;99695.16;;;22.31;51.27
43312;BME280;30041;48.300;16.352;2023-05-22T04:08:53;99698.66;;;22.31;51.39
43312;BME280;30041;48.300;16.352;2023-05-22T04:11:19;99694.31;;;22.30;51.46
43312;BME280;30041;48.300;16.352;2023-05-22T04:13:44;99694.31;;;22.30;51.53
43312;BME280;30041;48.300;16.352;2023-05-22T04:16:10;99694.75;;;22.39;51.39
43312;BME280;30041;48.300;16.352;2023-05-22T04:18:35;99696.88;;;22.37;51.23
43312;BME280;30041;48.300;16.352;2023-05-22T04:21:01;99696.53;;;22.33;51.52
43312;BME280;30041;48.300;16.352;2023-05-22T04:23:26;99702.19;;;22.32;51.60
43312;BME280;30041;48.300;16.352;2023-05-22T04:25:52;99697.00;;;22.30;51.52
43312;BME280;30041;48.300;16.352;2023-05-22T04:28:17;99701.13;;;22.33;51.52
43312;BME280;30041;48.300;16.352;2023-05-22T04:30:43;99694.31;;;22.30;51.61
43312;BME280;30041;48.300;16.352;2023-05-22T04:33:08;99695.72;;;22.33;51.68
43312;BME280;30041;48.300;16.352;2023-05-22T04:35:34;99698.44;;;22.33;51.47
43312;BME280;30041;48.300;16.352;2023-05-22T04:37:59;99689.59;;;22.37;51.68
43312;BME280;30041;48.300;16.352;2023-05-22T04:40:25;99696.31;;;22.35;51.50
43312;BME280;30041;48.300;16.352;2023-05-22T04:42:50;99690.34;;;22.33;51.51
43312;BME280;30041;48.300;16.352;2023-05-22T04:45:16;99684.66;;;22.34;51.50
43312;BME280;30041;48.300;16.352;2023-05-22T04:47:42;99687.63;;;22.33;51.57
43312;BME280;30041;48.300;16.352;2023-05-22T04:50:07;99685.16;;;22.31;51.60
43312;BME280;30041;48.300;16.352;2023-05-22T04:52:33;99692.44;;;22.31;51.60
43312;BME280;30041;48.300;16.352;2023-05-22T04:54:58;99688.91;;;22.30;51.46
43312;BME280;30041;48.300;16.352;2023-05-22T04:57:24;99684.34;;;22.31;51.03
43312;BME280;30041;48.300;16.352;2023-05-22T04:59:50;99678.09;;;22.30;50.66
43312;BME280;30041;48.300;16.352;2023-05-22T05:02:15;99681.31;;;22.27;51.16
43312;BME280;30041;48.300;16.352;2023-05-22T05:04:41;99679.81;;;22.08;51.98
43312;BME280;30041;48.300;16.352;2023-05-22T05:07:06;99683.16;;;21.98;52.28
43312;BME280;30041;48.300;16.352;2023-05-22T05:09:32;99684.22;;;21.97;52.46
43312;BME280;30041;48.300;16.352;2023-05-22T05:11:57;99689.13;;;22.00;52.51
43312;BME280;30041;48.300;16.352;2023-05-22T05:14:23;99687.47;;;21.99;52.62
43312;BME280;30041;48.300;16.352;2023-05-22T05:16:49;99687.72;;;21.97;52.18
43312;BME280;30041;48.300;16.352;2023-05-22T05:19:15;99684.44;;;21.95;52.61
43312;BME280;30041;48.300;16.352;2023-05-22T05:21:40;99690.66;;;21.96;52.39
43312;BME280;30041;48.300;16.352;2023-05-22T05:24:06;99690.06;;;21.94;52.58
43312;BME280;30041;48.300;16.352;2023-05-22T05:26:31;99694.75;;;21.98;52.40
43312;BME280;30041;48.300;16.352;2023-05-22T05:28:57;99691.38;;;21.91;53.08
43312;BME280;30041;48.300;16.352;2023-05-22T05:31:22;99693.25;;;21.91;53.02
43312;BME280;30041;48.300;16.352;2023-05-22T05:33:48;99692.81;;;21.82;53.56
43312;BME280;30041;48.300;16.352;2023-05-22T05:36:30;99691.78;;;21.71;54.50
43312;BME280;30041;48.300;16.352;2023-05-22T05:38:56;99685.78;;;21.69;54.27
43312;BME280;30041;48.300;16.352;2023-05-22T05:41:22;99696.47;;;21.76;54.32
43312;BME280;30041;48.300;16.352;2023-05-22T05:43:47;99688.22;;;21.83;53.93
43312;BME280;30041;48.300;16.352;2023-05-22T05:46:13;99701.50;;;21.84;53.56
43312;BME280;30041;48.300;16.352;2023-05-22T05:48:38;99694.13;;;21.80;53.79
43312;BME280;30041;48.300;16.352;2023-05-22T05:51:04;99698.31;;;21.87;53.38
43312;BME280;30041;48.300;16.352;2023-05-22T05:53:29;99696.91;;;21.85;53.75
43312;BME280;30041;48.300;16.352;2023-05-22T05:55:55;99690.56;;;21.91;53.51
43312;BME280;30041;48.300;16.352;2023-05-22T05:58:20;99690.78;;;21.89;53.91
43312;BME280;30041;48.300;16.352;2023-05-22T06:00:46;99692.78;;;21.94;53.55
43312;BME280;30041;48.300;16.352;2023-05-22T06:03:12;99690.66;;;21.96;53.73
43312;BME280;30041;48.300;16.352;2023-05-22T06:05:37;99685.06;;;21.86;52.65
43312;BME280;30041;48.300;16.352;2023-05-22T06:08:03;99683.69;;;21.71;53.31
43312;BME280;30041;48.300;16.352;2023-05-22T06:10:29;99679.94;;;21.72;53.98
43312;BME280;30041;48.300;16.352;2023-05-22T06:12:54;99674.06;;;21.75;54.45
43312;BME280;30041;48.300;16.352;2023-05-22T06:15:20;99683.56;;;21.78;54.25
43312;BME280;30041;48.300;16.352;2023-05-22T06:17:45;99677.94;;;21.80;54.51
43312;BME280;30041;48.300;16.352;2023-05-22T06:20:11;99684.13;;;21.80;54.49
43312;BME280;30041;48.300;16.352;2023-05-22T06:22:36;99689.19;;;21.76;54.87
43312;BME280;30041;48.300;16.352;2023-05-22T06:25:02;99682.50;;;21.79;54.73
43312;BME280;30041;48.300;16.352;2023-05-22T06:27:28;99684.94;;;21.81;54.68
43312;BME280;30041;48.300;16.352;2023-05-22T06:29:53;99676.84;;;21.81;54.90
43312;BME280;30041;48.300;16.352;2023-05-22T06:32:19;99672.53;;;21.80;54.85
43312;BME280;30041;48.300;16.352;2023-05-22T06:34:46;99673.84;;;21.77;54.56
43312;BME280;30041;48.300;16.352;2023-05-22T06:37:12;99679.09;;;21.72;54.06
43312;BME280;30041;48.300;16.352;2023-05-22T06:39:38;99676.41;;;21.72;54.46
43312;BME280;30041;48.300;16.352;2023-05-22T06:42:04;99675.00;;;21.69;55.23
43312;BME280;30041;48.300;16.352;2023-05-22T06:44:30;99672.41;;;21.74;54.25
43312;BME280;30041;48.300;16.352;2023-05-22T06:46:56;99675.09;;;21.74;54.95
43312;BME280;30041;48.300;16.352;2023-05-22T06:49:21;99675.38;;;21.73;55.17
43312;BME280;30041;48.300;16.352;2023-05-22T06:51:47;99676.19;;;21.73;55.32
43312;BME280;30041;48.300;16.352;2023-05-22T06:54:13;99675.94;;;21.75;54.91
43312;BME280;30041;48.300;16.352;2023-05-22T06:56:41;99674.56;;;21.72;55.12
43312;BME280;30041;48.300;16.352;2023-05-22T06:59:09;99682.97;;;21.76;54.96
43312;BME280;30041;48.300;16.352;2023-05-22T07:01:34;99683.78;;;21.76;55.16
43312;BME280;30041;48.300;16.352;2023-05-22T07:04:00;99688.50;;;21.69;55.23
43312;BME280;30041;48.300;16.352;2023-05-22T07:06:26;99689.09;;;21.71;55.18
43312;BME280;30041;48.300;16.352;2023-05-22T07:08:51;99684.28;;;21.73;55.09
43312;BME280;30041;48.300;16.352;2023-05-22T07:11:17;99683.69;;;21.71;55.13
43312;BME280;30041;48.300;16.352;2023-05-22T07:13:43;99678.78;;;21.68;55.20
43312;BME280;30041;48.300;16.352;2023-05-22T07:16:08;99680.41;;;21.69;55.35
43312;BME280;30041;48.300;16.352;2023-05-22T07:18:33;99679.38;;;21.70;55.15
43312;BME280;30041;48.300;16.352;2023-05-22T07:20:59;99677.25;;;21.72;55.17
43312;BME280;30041;48.300;16.352;2023-05-22T07:23:24;99675.09;;;21.74;55.21
43312;BME280;30041;48.300;16.352;2023-05-22T07:25:50;99672.31;;;21.69;55.27
43312;BME280;30041;48.300;16.352;2023-05-22T07:28:15;99673.13;;;21.70;55.21
43312;BME280;30041;48.300;16.352;2023-05-22T07:30:41;99677.47;;;21.71;55.17
43312;BME280;30041;48.300;16.352;2023-05-22T07:33:07;99670.19;;;21.71;54.98
43312;BME280;30041;48.300;16.352;2023-05-22T07:35:32;99663.75;;;21.72;55.14
43312;BME280;30041;48.300;16.352;2023-05-22T07:37:58;99664.44;;;21.68;55.30
43312;BME280;30041;48.300;16.352;2023-05-22T07:40:23;99657.78;;;21.70;55.62
43312;BME280;30041;48.300;16.352;2023-05-22T07:42:49;99667.50;;;21.71;55.13
43312;BME280;30041;48.300;16.352;2023-05-22T07:45:14;99664.56;;;21.73;55.23
43312;BME280;30041;48.300;16.352;2023-05-22T07:47:40;99667.63;;;21.65;55.48
43312;BME280;30041;48.300;16.352;2023-05-22T07:50:06;99665.03;;;21.70;55.20
43312;BME280;30041;48.300;16.352;2023-05-22T07:52:32;99661.28;;;21.71;55.20
43312;BME280;30041;48.300;16.352;2023-05-22T07:54:57;99660.47;;;21.70;55.20
43312;BME280;30041;48.300;16.352;2023-05-22T07:57:23;99659.63;;;21.70;55.16
43312;BME280;30041;48.300;16.352;2023-05-22T07:59:48;99655.91;;;21.71;55.13
43312;BME280;30041;48.300;16.352;2023-05-22T08:02:14;99661.75;;;21.68;55.38
43312;BME280;30041;48.300;16.352;2023-05-22T08:04:39;99659.63;;;21.70;55.22
43312;BME280;30041;48.300;16.352;2023-05-22T08:07:05;99653.66;;;21.68;55.10
43312;BME280;30041;48.300;16.352;2023-05-22T08:09:31;99661.75;;;21.68;55.23
43312;BME280;30041;48.300;16.352;2023-05-22T08:11:56;99659.91;;;21.68;55.09
43312;BME280;30041;48.300;16.352;2023-05-22T08:14:22;99657.66;;;21.65;55.32
43312;BME280;30041;48.300;16.352;2023-05-22T08:16:47;99658.00;;;21.69;55.14
43312;BME280;30041;48.300;16.352;2023-05-22T08:19:13;99649.56;;;21.65;55.25
43312;BME280;30041;48.300;16.352;2023-05-22T08:21:39;99650.41;;;21.66;55.24
43312;BME280;30041;48.300;16.352;2023-05-22T08:24:06;99649.56;;;21.65;55.37
43312;BME280;30041;48.300;16.352;2023-05-22T08:26:31;99648.25;;;21.68;55.16
43312;BME280;30041;48.300;16.352;2023-05-22T08:28:57;99650.72;;;21.69;55.15
43312;BME280;30041;48.300;16.352;2023-05-22T08:31:22;99649.09;;;21.68;55.02
43312;BME280;30041;48.300;16.352;2023-05-22T08:33:48;99647.72;;;21.66;55.09
43312;BME280;30041;48.300;16.352;2023-05-22T08:36:13;99647.44;;;21.67;54.87
43312;BME280;30041;48.300;16.352;2023-05-22T08:38:39;99644.44;;;21.64;55.14
43312;BME280;30041;48.300;16.352;2023-05-22T08:41:06;99646.78;;;21.60;55.32
43312;BME280;30041;48.300;16.352;2023-05-22T08:43:33;99645.00;;;21.66;55.13
43312;BME280;30041;48.300;16.352;2023-05-22T08:46:03;99640.16;;;21.68;54.79
43312;BME280;30041;48.300;16.352;2023-05-22T08:48:30;99642.88;;;21.68;55.08
43312;BME280;30041;48.300;16.352;2023-05-22T08:50:57;99641.59;;;21.70;54.84
43312;BME280;30041;48.300;16.352;2023-05-22T08:53:28;99639.03;;;21.64;55.20
43312;BME280;30041;48.300;16.352;2023-05-22T08:55:55;99635.03;;;21.66;55.03
43312;BME280;30041;48.300;16.352;2023-05-22T08:58:21;99637.47;;;21.68;54.89
43312;BME280;30041;48.300;16.352;2023-05-22T09:00:47;99634.78;;;21.68;55.08
43312;BME280;30041;48.300;16.352;2023-05-22T09:03:14;99630.44;;;21.67;55.06
43312;BME280;30041;48.300;16.352;2023-05-22T09:05:39;99637.47;;;21.68;54.93
43312;BME280;30041;48.300;16.352;2023-05-22T09:08:06;99636.91;;;21.66;54.92
43312;BME280;30041;48.300;16.352;2023-05-22T09:10:32;99633.97;;;21.67;55.01
43312;BME280;30041;48.300;16.352;2023-05-22T09:15:29;99636.06;;;21.65;54.98
43312;BME280;30041;48.300;16.352;2023-05-22T09:17:56;99628.56;;;21.67;54.88
43312;BME280;30041;48.300;16.352;2023-05-22T09:20:21;99636.44;;;21.69;54.87
43312;BME280;30041;48.300;16.352;2023-05-22T09:22:47;99633.88;;;21.62;54.96
43312;BME280;30041;48.300;16.352;2023-05-22T09:25:17;99636.06;;;21.65;54.82
43312;BME280;30041;48.300;16.352;2023-05-22T09:27:47;99631.28;;;21.67;54.78
43312;BME280;30041;48.300;16.352;2023-05-22T09:30:19;99629.38;;;21.68;54.68
43312;BME280;30041;48.300;16.352;2023-05-22T09:32:47;99622.59;;;21.65;54.65
43312;BME280;30041;48.300;16.352;2023-05-22T09:35:13;99629.53;;;21.61;54.98
43312;BME280;30041;48.300;16.352;2023-05-22T09:37:39;99627.66;;;21.62;54.91
43312;BME280;30041;48.300;16.352;2023-05-22T09:40:06;99629.28;;;21.63;55.05
43312;BME280;30041;48.300;16.352;2023-05-22T09:42:35;99627.41;;;21.63;54.82
43312;BME280;30041;48.300;16.352;2023-05-22T09:45:04;99634.22;;;21.66;54.72
43312;BME280;30041;48.300;16.352;2023-05-22T09:47:30;99635.03;;;21.66;54.82
43312;BME280;30041;48.300;16.352;2023-05-22T09:49:56;99626.13;;;21.66;54.74
43312;BME280;30041;48.300;16.352;2023-05-22T09:52:22;99623.44;;;21.66;54.72
43312;BME280;30041;48.300;16.352;2023-05-22T09:54:51;99623.19;;;21.67;54.79
43312;BME280;30041;48.300;16.352;2023-05-22T09:57:18;99626.00;;;21.61;54.82
43312;BME280;30041;48.300;16.352;2023-05-22T09:59:49;99625.19;;;21.60;54.79
43312;BME280;30041;48.300;16.352;2023-05-22T10:02:15;99617.91;;;21.61;54.80
43312;BME280;30041;48.300;16.352;2023-05-22T10:04:42;99615.00;;;21.62;54.74
43312;BME280;30041;48.300;16.352;2023-05-22T10:07:09;99619.56;;;21.62;54.83
43312;BME280;30041;48.300;16.352;2023-05-22T10:09:37;99612.88;;;21.64;54.87
43312;BME280;30041;48.300;16.352;2023-05-22T10:12:05;99611.56;;;21.67;54.61
43312;BME280;30041;48.300;16.352;2023-05-22T10:14:33;99602.31;;;21.63;54.48
43312;BME280;30041;48.300;16.352;2023-05-22T10:16:59;99606.53;;;21.59;54.78
43312;BME280;30041;48.300;16.352;2023-05-22T10:19:25;99596.34;;;21.61;54.69
43312;BME280;30041;48.300;16.352;2023-05-22T10:21:51;99599.03;;;21.61;54.90
43312;BME280;30041;48.300;16.352;2023-05-22T10:24:18;99592.25;;;21.58;54.80
43312;BME280;30041;48.300;16.352;2023-05-22T10:26:44;99598.22;;;21.60;54.68
43312;BME280;30041;48.300;16.352;2023-05-22T10:29:13;99593.91;;;21.59;54.81
43312;BME280;30041;48.300;16.352;2023-05-22T10:31:47;99591.22;;;21.59;54.73
43312;BME280;30041;48.300;16.352;2023-05-22T10:34:25;99590.38;;;21.59;54.64
43312;BME280;30041;48.300;16.352;2023-05-22T10:37:08;99587.44;;;21.60;54.63
43312;BME280;30041;48.300;16.352;2023-05-22T10:39:52;99583.22;;;21.64;54.67
43312;BME280;30041;48.300;16.352;2023-05-22T10:42:18;99592.19;;;21.70;54.63
43312;BME280;30041;48.300;16.352;2023-05-22T10:44:47;99585.53;;;21.72;54.35
43312;BME280;30041;48.300;16.352;2023-05-22T10:47:13;99579.28;;;21.72;54.46
43312;BME280;30041;48.300;16.352;2023-05-22T10:49:45;99580.69;;;21.74;54.47
43312;BME280;30041;48.300;16.352;2023-05-22T10:52:10;99574.59;;;21.79;54.41
43312;BME280;30041;48.300;16.352;2023-05-22T10:54:41;99571.56;;;21.75;54.44
43312;BME280;30041;48.300;16.352;2023-05-22T10:57:14;99572.06;;;21.72;54.61
43312;BME280;30041;48.300;16.352;2023-05-22T10:59:41;99579.28;;;21.72;54.53
43312;BME280;30041;48.300;16.352;2023-05-22T11:02:20;99576.72;;;21.77;54.26
43312;BME280;30041;48.300;16.352;2023-05-22T11:04:46;99570.03;;;21.80;54.40
43312;BME280;30041;48.300;16.352;2023-05-22T11:07:12;99564.84;;;21.78;54.25
43312;BME280;30041;48.300;16.352;2023-05-22T11:12:27;99555.72;;;21.79;54.29
43312;BME280;30041;48.300;16.352;2023-05-22T11:14:55;99556.75;;;21.78;54.35
43312;BME280;30041;48.300;16.352;2023-05-22T11:17:28;99547.84;;;21.77;54.42
43312;BME280;30041;48.300;16.352;2023-05-22T11:20:14;99543.28;;;21.78;54.50
43312;BME280;30041;48.300;16.352;2023-05-22T11:22:45;99543.63;;;21.82;54.40
43312;BME280;30041;48.300;16.352;2023-05-22T11:25:18;99538.22;;;21.82;54.36
43312;BME280;30041;48.300;16.352;2023-05-22T11:27:45;99542.91;;;21.86;54.22
43312;BME280;30041;48.300;16.352;2023-05-22T11:30:12;99535.03;;;21.85;54.18
43312;BME280;30041;48.300;16.352;2023-05-22T11:32:40;99532.84;;;21.82;54.10
43312;BME280;30041;48.300;16.352;2023-05-22T11:35:06;99523.66;;;21.83;54.15
43312;BME280;30041;48.300;16.352;2023-05-22T11:37:32;99528.81;;;21.84;54.24
43312;BME280;30041;48.300;16.352;2023-05-22T11:40:04;99523.44;;;21.84;54.47
43312;BME280;30041;48.300;16.352;2023-05-22T11:42:29;99522.28;;;21.80;54.37
43312;BME280;30041;48.300;16.352;2023-05-22T11:44:55;99524.75;;;21.82;54.47
43312;BME280;30041;48.300;16.352;2023-05-22T11:47:21;99521.53;;;21.85;54.47
43312;BME280;30041;48.300;16.352;2023-05-22T11:49:46;99518.69;;;21.91;54.55
43312;BME280;30041;48.300;16.352;2023-05-22T11:52:15;99521.88;;;21.88;54.95
43312;BME280;30041;48.300;16.352;2023-05-22T11:54:45;99526.44;;;21.88;54.94
43312;BME280;30041;48.300;16.352;2023-05-22T11:57:10;99526.94;;;21.85;54.76
43312;BME280;30041;48.300;16.352;2023-05-22T11:59:37;99519.19;;;21.88;54.60
43312;BME280;30041;48.300;16.352;2023-05-22T12:02:02;99522.13;;;21.87;54.63
43312;BME280;30041;48.300;16.352;2023-05-22T12:04:28;99513.78;;;21.88;54.67
43312;BME280;30041;48.300;16.352;2023-05-22T12:06:54;99516.22;;;21.90;54.57
43312;BME280;30041;48.300;16.352;2023-05-22T12:09:19;99517.88;;;21.91;54.35
43312;BME280;30041;48.300;16.352;2023-05-22T12:11:46;99520.59;;;21.91;54.49
43312;BME280;30041;48.300;16.352;2023-05-22T12:14:12;99509.22;;;21.89;54.57
43312;BME280;30041;48.300;16.352;2023-05-22T12:16:38;99507.91;;;21.91;54.54
43312;BME280;30041;48.300;16.352;2023-05-22T12:19:08;99508.13;;;21.90;54.63
43312;BME280;30041;48.300;16.352;2023-05-22T12:21:35;99509.28;;;21.94;54.33
43312;BME280;30041;48.300;16.352;2023-05-22T12:24:03;99520.66;;;21.96;54.10
43312;BME280;30041;48.300;16.352;2023-05-22T12:26:29;99516.56;;;21.93;54.44
43312;BME280;30041;48.300;16.352;2023-05-22T12:28:56;99509.28;;;21.94;54.18
43312;BME280;30041;48.300;16.352;2023-05-22T12:31:22;99509.06;;;21.95;53.75
43312;BME280;30041;48.300;16.352;2023-05-22T12:33:51;99517.97;;;21.96;53.98
43312;BME280;30041;48.300;16.352;2023-05-22T12:36:17;99511.75;;;21.95;53.77
43312;BME280;30041;48.300;16.352;2023-05-22T12:38:42;99522.31;;;21.97;53.75
43312;BME280;30041;48.300;16.352;2023-05-22T12:41:08;99510.38;;;21.93;54.32
43312;BME280;30041;48.300;16.352;2023-05-22T12:43:33;99513.06;;;21.93;54.12
43312;BME280;30041;48.300;16.352;2023-05-22T12:45:59;99504.84;;;21.88;54.11
43312;BME280;30041;48.300;16.352;2023-05-22T12:48:25;99502.50;;;21.91;53.80
43312;BME280;30041;48.300;16.352;2023-05-22T12:50:50;99509.78;;;21.91;54.03
43312;BME280;30041;48.300;16.352;2023-05-22T12:53:16;99499.81;;;21.91;54.09
43312;BME280;30041;48.300;16.352;2023-05-22T12:55:42;99506.59;;;21.94;53.89
43312;BME280;30041;48.300;16.352;2023-05-22T12:58:07;99501.44;;;21.92;53.97
43312;BME280;30041;48.300;16.352;2023-05-22T13:00:33;99505.44;;;21.90;53.93
43312;BME280;30041;48.300;16.352;2023-05-22T13:03:00;99510.03;;;21.89;53.92
43312;BME280;30041;48.300;16.352;2023-05-22T13:05:25;99501.69;;;21.91;53.94